Time;durP1;ratioP1;P1;durP2;ratioP2;P2;SDS_P1;SDS_P2;PMS_P1;PMS_P2;Temp;Humidity;BMP_temperature;BMP_pressure;BME280_temperature;BME280_humidity;BME280_pressure;Samples;Min_cycle;Max_cycle;Signal;HPM_P1;HPM_P2
2023/10/28 00:00:38;;;;;;;1.88;1.75;;;;;;;;;;4960833;28;20169;-70
2023/10/28 00:03:05;;;;;;;2.08;1.88;;;;;;;;;;4960440;28;20034;-69
2023/10/28 00:05:31;;;;;;;3.35;1.95;;;;;;;;;;4960275;28;20047;-68
2023/10/28 00:07:56;;;;;;;2.95;2.03;;;;;;;;;;4959746;28;20122;-67
2023/10/28 00:10:22;;;;;;;1.90;1.80;;;;;;;;;;4959454;28;20177;-70
2023/10/28 00:12:49;;;;;;;1.85;1.58;;;;;;;;;;4960904;28;20125;-68
2023/10/28 00:15:18;;;;;;;5.70;1.80;;;;;;;;;;4959072;28;20559;-66
2023/10/28 00:17:47;;;;;;;4.53;1.60;;;;;;;;;;4960911;28;20050;-71
2023/10/28 00:20:14;;;;;;;1.60;1.50;;;;;;;;;;4960128;28;20053;-71
2023/10/28 00:22:40;;;;;;;1.17;1.08;;;;;;;;;;4959046;28;20049;-72
2023/10/28 00:25:06;;;;;;;1.10;0.52;;;;;;;;;;4959370;28;20047;-73
2023/10/28 00:27:33;;;;;;;1.98;0.65;;;;;;;;;;4958421;28;20051;-73
2023/10/28 00:30:00;;;;;;;0.60;0.25;;;;;;;;;;4959186;28;20034;-71
2023/10/28 00:32:25;;;;;;;0.75;0.63;;;;;;;;;;4958415;28;20138;-68
2023/10/28 00:34:51;;;;;;;0.50;0.50;;;;;;;;;;4959257;28;20145;-69
2023/10/28 00:37:17;;;;;;;0.55;0.45;;;;;;;;;;4958589;28;20051;-71
2023/10/28 00:39:43;;;;;;;0.22;0.22;;;;;;;;;;4958755;28;20046;-68
2023/10/28 00:42:13;;;;;;;0.98;0.70;;;;;;;;;;4958421;28;20054;-69
2023/10/28 00:44:41;;;;;;;0.40;0.40;;;;;;;;;;4959813;28;20120;-70
2023/10/28 00:47:06;;;;;;;2.50;0.50;;;;;;;;;;4960321;28;20066;-67
2023/10/28 00:49:32;;;;;;;0.55;0.50;;;;;;;;;;4957876;28;20054;-70
2023/10/28 00:51:59;;;;;;;0.40;0.40;;;;;;;;;;4960165;28;20058;-70
2023/10/28 00:54:26;;;;;;;3.80;0.70;;;;;;;;;;4959642;28;20559;-70
2023/10/28 00:56:53;;;;;;;0.90;0.50;;;;;;;;;;4958536;28;20042;-69
2023/10/28 00:59:19;;;;;;;0.50;0.50;;;;;;;;;;4958071;28;21061;-69
2023/10/28 01:01:44;;;;;;;1.10;0.50;;;;;;;;;;4942264;28;20112;-71
2023/10/28 01:04:10;;;;;;;0.30;0.30;;;;;;;;;;4957987;28;20058;-67
2023/10/28 01:06:37;;;;;;;0.40;0.40;;;;;;;;;;4958418;28;20049;-70
2023/10/28 01:09:03;;;;;;;0.45;0.38;;;;;;;;;;4958374;28;20493;-67
2023/10/28 01:11:28;;;;;;;0.50;0.50;;;;;;;;;;4957605;28;20050;-69
2023/10/28 01:13:54;;;;;;;0.47;0.47;;;;;;;;;;4958553;28;20066;-69
2023/10/28 01:16:20;;;;;;;0.43;0.43;;;;;;;;;;4941903;28;20051;-68
2023/10/28 01:18:53;;;;;;;0.68;0.50;;;;;;;;;;4957587;28;20047;-71
2023/10/28 01:21:18;;;;;;;1.13;0.43;;;;;;;;;;4956268;28;20038;-69
2023/10/28 01:23:43;;;;;;;0.60;0.60;;;;;;;;;;4940999;28;20680;-70
2023/10/28 01:26:09;;;;;;;0.38;0.38;;;;;;;;;;4955811;28;20078;-68
2023/10/28 01:28:35;;;;;;;0.60;0.60;;;;;;;;;;4957683;28;20073;-67
2023/10/28 01:31:01;;;;;;;0.40;0.40;;;;;;;;;;4958819;28;20046;-69
2023/10/28 01:33:27;;;;;;;0.40;0.40;;;;;;;;;;4958135;28;20386;-69
2023/10/28 01:35:53;;;;;;;0.38;0.38;;;;;;;;;;4963246;28;20073;-67
2023/10/28 01:38:18;;;;;;;2.90;0.50;;;;;;;;;;4963399;28;20047;-70
2023/10/28 01:40:44;;;;;;;0.47;0.47;;;;;;;;;;4960846;28;20047;-67
2023/10/28 01:43:11;;;;;;;0.40;0.40;;;;;;;;;;4962372;28;20476;-68
2023/10/28 01:45:38;;;;;;;0.40;0.40;;;;;;;;;;4962187;28;20122;-70
2023/10/28 01:48:04;;;;;;;0.70;0.43;;;;;;;;;;4947573;28;20415;-70
2023/10/28 01:50:30;;;;;;;0.40;0.40;;;;;;;;;;4962986;28;20052;-70
2023/10/28 01:52:55;;;;;;;0.28;0.28;;;;;;;;;;4946295;28;20039;-69
2023/10/28 01:55:21;;;;;;;0.57;0.40;;;;;;;;;;4963622;28;20054;-70
2023/10/28 01:57:46;;;;;;;1.50;0.50;;;;;;;;;;4961698;28;20050;-69
2023/10/28 02:00:12;;;;;;;0.82;0.40;;;;;;;;;;4961257;28;20066;-70
2023/10/28 02:02:38;;;;;;;1.50;0.40;;;;;;;;;;4961786;28;20054;-69
2023/10/28 02:05:04;;;;;;;0.73;0.45;;;;;;;;;;4963254;28;20043;-67
2023/10/28 02:07:30;;;;;;;0.40;0.40;;;;;;;;;;4962880;28;20043;-68
2023/10/28 02:09:55;;;;;;;0.75;0.43;;;;;;;;;;4959713;28;20054;-69
2023/10/28 02:12:21;;;;;;;4.05;0.20;;;;;;;;;;4945068;28;20066;-70
2023/10/28 02:14:48;;;;;;;0.30;0.30;;;;;;;;;;4960600;28;20038;-68
2023/10/28 02:17:13;;;;;;;0.40;0.30;;;;;;;;;;4945726;28;20067;-70
2023/10/28 02:19:39;;;;;;;2.15;0.25;;;;;;;;;;4960767;28;20087;-69
2023/10/28 02:22:06;;;;;;;0.60;0.28;;;;;;;;;;4961228;28;20054;-70
2023/10/28 02:24:31;;;;;;;0.30;0.22;;;;;;;;;;4959975;28;20420;-68
2023/10/28 02:26:57;;;;;;;5.82;0.45;;;;;;;;;;4960956;28;20051;-69
2023/10/28 02:29:23;;;;;;;0.10;0.10;;;;;;;;;;4971454;28;20071;-69
2023/10/28 02:31:48;;;;;;;0.57;0.40;;;;;;;;;;4980586;28;20050;-68
2023/10/28 02:34:14;;;;;;;0.30;0.30;;;;;;;;;;4980372;28;20133;-67
2023/10/28 02:36:41;;;;;;;0.47;0.40;;;;;;;;;;4961784;28;20058;-70
2023/10/28 02:39:07;;;;;;;1.73;0.30;;;;;;;;;;4961294;28;20055;-70
2023/10/28 02:41:33;;;;;;;0.30;0.30;;;;;;;;;;4960991;28;20142;-68
2023/10/28 02:43:59;;;;;;;0.50;0.40;;;;;;;;;;4961915;28;20054;-69
2023/10/28 02:46:25;;;;;;;2.38;0.40;;;;;;;;;;4960084;28;20035;-69
2023/10/28 02:48:54;;;;;;;0.50;0.40;;;;;;;;;;4960984;28;20049;-69
2023/10/28 02:51:19;;;;;;;0.30;0.20;;;;;;;;;;4944965;28;20043;-70
2023/10/28 02:53:45;;;;;;;0.32;0.28;;;;;;;;;;4960692;28;20582;-68
2023/10/28 02:56:10;;;;;;;2.85;0.60;;;;;;;;;;4960138;28;20046;-68
2023/10/28 02:58:36;;;;;;;0.75;0.30;;;;;;;;;;4961216;28;20629;-69
2023/10/28 03:01:08;;;;;;;1.25;0.45;;;;;;;;;;4961436;28;20492;-68
2023/10/28 03:03:34;;;;;;;1.02;0.47;;;;;;;;;;4960037;28;20054;-70
2023/10/28 03:06:00;;;;;;;0.40;0.30;;;;;;;;;;4961060;28;20038;-70
2023/10/28 03:08:25;;;;;;;3.85;0.30;;;;;;;;;;4960567;28;20055;-68
2023/10/28 03:10:50;;;;;;;1.65;0.40;;;;;;;;;;4957268;28;20042;-71
2023/10/28 03:13:16;;;;;;;1.50;0.52;;;;;;;;;;4960188;28;20178;-69
2023/10/28 03:15:43;;;;;;;0.50;0.32;;;;;;;;;;4960347;28;20039;-70
2023/10/28 03:18:09;;;;;;;2.97;0.50;;;;;;;;;;4960890;28;20046;-71
2023/10/28 03:20:34;;;;;;;0.65;0.35;;;;;;;;;;4959237;28;20043;-68
2023/10/28 03:23:00;;;;;;;0.35;0.30;;;;;;;;;;4962154;28;20053;-69
2023/10/28 03:25:27;;;;;;;0.68;0.20;;;;;;;;;;4961584;28;20047;-69
2023/10/28 03:27:52;;;;;;;1.73;0.30;;;;;;;;;;4961639;28;20039;-68
2023/10/28 03:30:18;;;;;;;0.20;0.20;;;;;;;;;;4958493;28;20054;-67
2023/10/28 03:32:44;;;;;;;1.10;0.32;;;;;;;;;;4961007;28;20476;-69
2023/10/28 03:35:09;;;;;;;1.42;0.47;;;;;;;;;;4961518;28;20047;-69
2023/10/28 03:37:37;;;;;;;0.82;0.40;;;;;;;;;;4960634;28;20043;-70
2023/10/28 03:40:03;;;;;;;0.93;0.40;;;;;;;;;;4960333;28;20456;-69
2023/10/28 03:42:28;;;;;;;0.43;0.30;;;;;;;;;;4960729;28;20058;-71
2023/10/28 03:44:54;;;;;;;0.28;0.20;;;;;;;;;;4961189;28;20051;-70
2023/10/28 03:47:21;;;;;;;0.47;0.30;;;;;;;;;;4961149;28;20050;-67
2023/10/28 03:49:46;;;;;;;0.32;0.20;;;;;;;;;;4960708;28;20130;-68
2023/10/28 03:52:12;;;;;;;0.20;0.20;;;;;;;;;;4959052;28;20057;-70
2023/10/28 03:54:38;;;;;;;1.10;0.30;;;;;;;;;;4959803;28;20050;-68
2023/10/28 03:57:04;;;;;;;0.30;0.30;;;;;;;;;;4960847;28;20651;-70
2023/10/28 03:59:30;;;;;;;0.20;0.20;;;;;;;;;;4971693;28;20054;-70
2023/10/28 04:01:55;;;;;;;0.40;0.38;;;;;;;;;;4979853;28;20040;-70
2023/10/28 04:04:21;;;;;;;0.43;0.30;;;;;;;;;;4976620;28;20072;-69
2023/10/28 04:06:46;;;;;;;0.82;0.40;;;;;;;;;;4960877;28;20045;-70
2023/10/28 04:09:15;;;;;;;1.17;0.30;;;;;;;;;;4961298;28;20056;-68
2023/10/28 04:11:41;;;;;;;2.70;0.40;;;;;;;;;;4960455;28;20074;-68
2023/10/28 04:14:07;;;;;;;0.75;0.47;;;;;;;;;;4960965;28;20085;-69
2023/10/28 04:16:33;;;;;;;1.65;0.30;;;;;;;;;;4963544;28;20060;-69
2023/10/28 04:18:58;;;;;;;0.20;0.17;;;;;;;;;;4979337;28;20394;-70
2023/10/28 04:21:24;;;;;;;0.30;0.30;;;;;;;;;;4980437;28;20050;-69
2023/10/28 04:23:50;;;;;;;2.45;0.43;;;;;;;;;;4979186;28;20042;-69
2023/10/28 04:26:15;;;;;;;0.20;0.20;;;;;;;;;;4961970;28;20047;-69
2023/10/28 04:28:40;;;;;;;0.17;0.17;;;;;;;;;;4958497;28;20457;-69
2023/10/28 04:31:06;;;;;;;0.45;0.45;;;;;;;;;;4968377;28;20053;-69
2023/10/28 04:33:31;;;;;;;0.77;0.40;;;;;;;;;;4981053;28;20046;-68
2023/10/28 04:35:57;;;;;;;5.10;0.35;;;;;;;;;;4979598;28;20054;-71
2023/10/28 04:38:22;;;;;;;0.52;0.40;;;;;;;;;;4978842;28;20046;-70
2023/10/28 04:40:51;;;;;;;0.30;0.30;;;;;;;;;;4978407;28;20054;-70
2023/10/28 04:43:16;;;;;;;0.57;0.15;;;;;;;;;;4978756;28;20495;-70
2023/10/28 04:45:43;;;;;;;0.50;0.40;;;;;;;;;;4965775;28;20034;-70
2023/10/28 04:48:13;;;;;;;1.17;0.30;;;;;;;;;;4957577;28;20549;-70
2023/10/28 04:50:39;;;;;;;1.20;0.40;;;;;;;;;;4959682;28;20054;-70
2023/10/28 04:53:04;;;;;;;0.63;0.43;;;;;;;;;;4960042;28;20476;-68
2023/10/28 04:55:30;;;;;;;0.47;0.30;;;;;;;;;;4959150;28;20054;-70
2023/10/28 04:57:55;;;;;;;0.80;0.40;;;;;;;;;;4959953;28;20053;-66
2023/10/28 05:00:21;;;;;;;0.40;0.40;;;;;;;;;;4960713;28;20104;-67
2023/10/28 05:02:46;;;;;;;1.40;0.30;;;;;;;;;;4979846;28;20165;-69
2023/10/28 05:05:13;;;;;;;0.25;0.20;;;;;;;;;;4977508;28;20096;-69
2023/10/28 05:07:39;;;;;;;0.38;0.32;;;;;;;;;;4979407;28;20070;-70
2023/10/28 05:10:05;;;;;;;0.70;0.35;;;;;;;;;;4975404;28;20097;-69
2023/10/28 05:12:32;;;;;;;0.90;0.30;;;;;;;;;;4978665;28;20046;-69
2023/10/28 05:14:59;;;;;;;0.40;0.30;;;;;;;;;;4977570;28;20088;-71
2023/10/28 05:17:25;;;;;;;0.45;0.35;;;;;;;;;;4979664;28;20400;-71
2023/10/28 05:19:51;;;;;;;1.08;0.30;;;;;;;;;;4978622;28;20053;-71
2023/10/28 05:22:18;;;;;;;0.30;0.30;;;;;;;;;;4978392;28;20054;-70
2023/10/28 05:24:44;;;;;;;0.52;0.40;;;;;;;;;;4962020;28;20074;-71
2023/10/28 05:27:10;;;;;;;0.38;0.35;;;;;;;;;;4961846;28;20046;-71
2023/10/28 05:29:36;;;;;;;0.30;0.22;;;;;;;;;;4979705;28;20057;-71
2023/10/28 05:32:02;;;;;;;0.40;0.40;;;;;;;;;;4978428;28;20077;-71
2023/10/28 05:34:27;;;;;;;0.50;0.47;;;;;;;;;;4976822;28;20089;-72
2023/10/28 05:36:52;;;;;;;0.75;0.47;;;;;;;;;;4978508;28;20045;-70
2023/10/28 05:39:20;;;;;;;1.83;0.40;;;;;;;;;;4978272;28;20082;-72
2023/10/28 05:41:49;;;;;;;0.40;0.40;;;;;;;;;;4977817;28;20047;-73
2023/10/28 05:44:14;;;;;;;1.02;0.40;;;;;;;;;;4959874;28;20607;-70
2023/10/28 05:46:40;;;;;;;0.38;0.38;;;;;;;;;;4977018;28;20057;-72
2023/10/28 05:49:06;;;;;;;2.97;0.40;;;;;;;;;;4977177;28;20054;-72
2023/10/28 05:51:35;;;;;;;0.60;0.60;;;;;;;;;;4960923;28;20797;-71
2023/10/28 05:54:01;;;;;;;0.88;0.35;;;;;;;;;;4977052;28;20046;-69
2023/10/28 05:56:27;;;;;;;1.35;0.30;;;;;;;;;;4965533;28;20046;-71
2023/10/28 05:58:54;;;;;;;0.50;0.50;;;;;;;;;;4975678;28;20049;-70
2023/10/28 06:01:19;;;;;;;0.45;0.32;;;;;;;;;;4967874;28;20077;-71
2023/10/28 06:03:46;;;;;;;0.47;0.38;;;;;;;;;;4973710;28;20049;-71
2023/10/28 06:06:11;;;;;;;0.52;0.43;;;;;;;;;;4975521;28;20045;-70
2023/10/28 06:08:38;;;;;;;0.35;0.32;;;;;;;;;;4973812;28;20054;-72
2023/10/28 06:11:04;;;;;;;0.90;0.40;;;;;;;;;;4976750;28;20142;-70
2023/10/28 06:13:29;;;;;;;0.30;0.30;;;;;;;;;;4975301;28;20169;-70
2023/10/28 06:15:54;;;;;;;1.33;0.45;;;;;;;;;;4974710;28;20137;-72
2023/10/28 06:18:20;;;;;;;0.20;0.20;;;;;;;;;;4975807;28;20061;-69
2023/10/28 06:20:47;;;;;;;0.20;0.20;;;;;;;;;;4957385;28;20054;-69
2023/10/28 06:23:14;;;;;;;1.63;0.40;;;;;;;;;;4960381;28;20046;-69
2023/10/28 06:25:40;;;;;;;0.55;0.35;;;;;;;;;;4960784;28;20058;-71
2023/10/28 06:28:05;;;;;;;2.38;0.50;;;;;;;;;;4958884;28;20055;-71
2023/10/28 06:30:31;;;;;;;0.30;0.30;;;;;;;;;;4961644;28;20056;-71
2023/10/28 06:32:58;;;;;;;0.40;0.40;;;;;;;;;;4980958;28;20152;-71
2023/10/28 06:35:24;;;;;;;0.60;0.55;;;;;;;;;;4979239;28;20058;-72
2023/10/28 06:37:49;;;;;;;0.52;0.43;;;;;;;;;;4966169;28;20136;-70
2023/10/28 06:40:15;;;;;;;5.55;0.63;;;;;;;;;;4959361;28;20089;-70
2023/10/28 06:42:41;;;;;;;0.65;0.52;;;;;;;;;;4959710;28;20043;-71
2023/10/28 06:45:06;;;;;;;1.20;0.50;;;;;;;;;;4961267;28;20046;-72
2023/10/28 06:47:33;;;;;;;2.40;0.75;;;;;;;;;;4959637;28;20112;-72
2023/10/28 06:50:04;;;;;;;0.60;0.60;;;;;;;;;;4959990;28;20059;-70
2023/10/28 06:52:30;;;;;;;0.55;0.50;;;;;;;;;;4959461;28;20122;-69
2023/10/28 06:55:00;;;;;;;3.13;0.50;;;;;;;;;;4967422;28;20128;-72
2023/10/28 06:57:27;;;;;;;0.77;0.38;;;;;;;;;;4978548;28;20049;-70
2023/10/28 06:59:53;;;;;;;2.30;0.65;;;;;;;;;;4979339;28;20046;-70
2023/10/28 07:02:19;;;;;;;3.08;0.73;;;;;;;;;;4976108;28;20054;-71
2023/10/28 07:04:44;;;;;;;2.05;0.55;;;;;;;;;;4960283;28;20053;-70
2023/10/28 07:07:14;;;;;;;2.78;0.60;;;;;;;;;;4941647;28;20388;-71
2023/10/28 07:09:40;;;;;;;0.50;0.50;;;;;;;;;;4958967;28;20053;-69
2023/10/28 07:12:06;;;;;;;1.92;0.70;;;;;;;;;;4956494;28;20054;-70
2023/10/28 07:14:31;;;;;;;0.50;0.50;;;;;;;;;;4957974;28;20054;-69
2023/10/28 07:16:59;;;;;;;0.75;0.75;;;;;;;;;;4958958;28;20047;-71
2023/10/28 07:19:24;;;;;;;0.57;0.57;;;;;;;;;;4969880;28;20070;-69
2023/10/28 07:21:50;;;;;;;0.68;0.68;;;;;;;;;;4974879;28;20679;-72
2023/10/28 07:24:15;;;;;;;0.77;0.70;;;;;;;;;;4977979;28;20484;-71
2023/10/28 07:26:40;;;;;;;0.57;0.50;;;;;;;;;;4972765;28;20043;-73
2023/10/28 07:29:07;;;;;;;0.50;0.50;;;;;;;;;;4928895;28;20050;-73
2023/10/28 07:31:33;;;;;;;1.30;0.80;;;;;;;;;;4957536;28;20043;-73
2023/10/28 07:34:00;;;;;;;0.70;0.65;;;;;;;;;;4958335;28;20130;-72
2023/10/28 07:36:25;;;;;;;0.90;0.55;;;;;;;;;;4975803;28;20589;-71
2023/10/28 07:38:51;;;;;;;1.00;0.32;;;;;;;;;;4976585;28;20526;-71
2023/10/28 07:41:17;;;;;;;0.80;0.35;;;;;;;;;;4977868;28;20105;-73
2023/10/28 07:43:43;;;;;;;0.90;0.70;;;;;;;;;;4947112;28;20128;-73
2023/10/28 07:46:08;;;;;;;0.57;0.40;;;;;;;;;;4959416;28;20047;-76
2023/10/28 07:48:34;;;;;;;0.63;0.40;;;;;;;;;;4958529;28;20113;-73
2023/10/28 07:50:59;;;;;;;0.50;0.50;;;;;;;;;;4948695;28;20050;-75
2023/10/28 07:53:25;;;;;;;0.40;0.40;;;;;;;;;;4953303;28;20066;-73
2023/10/28 07:55:50;;;;;;;0.82;0.50;;;;;;;;;;4943813;28;20049;-74
2023/10/28 07:58:16;;;;;;;3.50;0.70;;;;;;;;;;4941059;28;20054;-74
2023/10/28 08:00:41;;;;;;;0.82;0.57;;;;;;;;;;4959039;28;20051;-71
2023/10/28 08:03:07;;;;;;;0.55;0.50;;;;;;;;;;4958949;28;20047;-72
2023/10/28 08:05:33;;;;;;;0.45;0.40;;;;;;;;;;4956720;28;20043;-71
2023/10/28 08:07:59;;;;;;;1.85;0.50;;;;;;;;;;4959914;28;20602;-72
2023/10/28 08:10:25;;;;;;;0.55;0.55;;;;;;;;;;4958085;28;20089;-71
2023/10/28 08:12:59;;;;;;;0.60;0.45;;;;;;;;;;4959410;28;20522;-71
2023/10/28 08:15:25;;;;;;;0.68;0.52;;;;;;;;;;4958647;28;20078;-70
2023/10/28 08:17:51;;;;;;;0.52;0.45;;;;;;;;;;4960295;28;20078;-72
2023/10/28 08:20:17;;;;;;;0.60;0.50;;;;;;;;;;4974488;28;20046;-72
2023/10/28 08:22:44;;;;;;;0.63;0.50;;;;;;;;;;4961027;28;20059;-72
2023/10/28 08:25:11;;;;;;;3.60;0.85;;;;;;;;;;4960946;28;20046;-71
2023/10/28 08:27:37;;;;;;;0.50;0.50;;;;;;;;;;4943218;28;20046;-69
2023/10/28 08:30:03;;;;;;;0.52;0.52;;;;;;;;;;4958318;28;20050;-71
2023/10/28 08:32:30;;;;;;;2.10;0.55;;;;;;;;;;4957074;28;20129;-67
2023/10/28 08:34:56;;;;;;;0.40;0.40;;;;;;;;;;4959827;28;20046;-68
2023/10/28 08:37:23;;;;;;;0.52;0.52;;;;;;;;;;4960216;28;20463;-67
2023/10/28 08:39:48;;;;;;;0.52;0.52;;;;;;;;;;4958916;28;20039;-68
2023/10/28 08:42:14;;;;;;;0.50;0.43;;;;;;;;;;4959429;28;20412;-68
2023/10/28 08:44:40;;;;;;;0.50;0.50;;;;;;;;;;4960249;28;20054;-68
2023/10/28 08:47:06;;;;;;;1.75;0.57;;;;;;;;;;4959343;28;21135;-68
2023/10/28 08:49:39;;;;;;;1.80;0.50;;;;;;;;;;4959127;28;20552;-68
2023/10/28 08:52:08;;;;;;;0.50;0.50;;;;;;;;;;4957723;28;20082;-69
2023/10/28 08:54:36;;;;;;;0.55;0.55;;;;;;;;;;4957605;28;20057;-70
2023/10/28 08:57:03;;;;;;;0.68;0.40;;;;;;;;;;4958898;28;20082;-69
2023/10/28 08:59:29;;;;;;;0.50;0.50;;;;;;;;;;4959852;28;20504;-69
2023/10/28 09:01:57;;;;;;;0.85;0.60;;;;;;;;;;4959318;28;20057;-68
2023/10/28 09:04:23;;;;;;;0.40;0.40;;;;;;;;;;4959605;28;20042;-69
2023/10/28 09:06:52;;;;;;;0.88;0.50;;;;;;;;;;4960892;28;20393;-69
2023/10/28 09:09:18;;;;;;;0.30;0.30;;;;;;;;;;4959951;28;20043;-69
2023/10/28 09:11:45;;;;;;;0.88;0.40;;;;;;;;;;4962309;28;20043;-69
2023/10/28 09:14:11;;;;;;;2.05;0.38;;;;;;;;;;4957928;28;20853;-68
2023/10/28 09:16:37;;;;;;;0.50;0.50;;;;;;;;;;4959904;28;20058;-69
2023/10/28 09:19:03;;;;;;;1.48;0.35;;;;;;;;;;4959255;28;20090;-68
2023/10/28 09:21:29;;;;;;;0.52;0.40;;;;;;;;;;4959885;28;20043;-68
2023/10/28 09:24:00;;;;;;;0.40;0.30;;;;;;;;;;4957302;28;20500;-67
2023/10/28 09:26:26;;;;;;;0.88;0.40;;;;;;;;;;4959680;28;20092;-67
2023/10/28 09:28:51;;;;;;;0.28;0.22;;;;;;;;;;4957721;28;20046;-67
2023/10/28 09:31:24;;;;;;;1.50;0.47;;;;;;;;;;4956290;28;20407;-68
2023/10/28 09:33:51;;;;;;;0.68;0.50;;;;;;;;;;4957181;28;20097;-67
2023/10/28 09:36:17;;;;;;;1.08;0.38;;;;;;;;;;4957179;28;20045;-67
2023/10/28 09:38:47;;;;;;;0.40;0.40;;;;;;;;;;4958128;28;20058;-67
2023/10/28 09:41:13;;;;;;;0.43;0.40;;;;;;;;;;4958496;28;20043;-68
2023/10/28 09:43:39;;;;;;;0.68;0.38;;;;;;;;;;4959156;28;20058;-68
2023/10/28 09:46:05;;;;;;;0.82;0.40;;;;;;;;;;4958421;28;20762;-68
2023/10/28 09:48:38;;;;;;;1.15;0.57;;;;;;;;;;4958308;28;20059;-68
2023/10/28 09:51:05;;;;;;;0.60;0.38;;;;;;;;;;4957518;28;20136;-68
2023/10/28 09:53:34;;;;;;;0.40;0.40;;;;;;;;;;4957774;28;20575;-69
2023/10/28 09:56:04;;;;;;;1.15;0.40;;;;;;;;;;4959319;28;20512;-69
2023/10/28 09:58:52;;;;;;;0.98;0.40;;;;;;;;;;4960840;28;20051;-68
2023/10/28 10:01:40;;;;;;;0.60;0.30;;;;;;;;;;4959008;28;20093;-68
2023/10/28 10:04:06;;;;;;;1.27;0.30;;;;;;;;;;4962900;28;20047;-68
2023/10/28 10:06:34;;;;;;;2.88;0.40;;;;;;;;;;4962078;28;20069;-69
2023/10/28 10:09:00;;;;;;;0.60;0.50;;;;;;;;;;4962709;28;20042;-68
2023/10/28 10:11:26;;;;;;;0.90;0.52;;;;;;;;;;4961601;28;20047;-67
2023/10/28 10:13:53;;;;;;;0.90;0.50;;;;;;;;;;4961579;28;20046;-67
2023/10/28 10:16:35;;;;;;;0.47;0.32;;;;;;;;;;4962114;28;20078;-67
2023/10/28 10:19:10;;;;;;;0.75;0.63;;;;;;;;;;4962796;28;20047;-66
2023/10/28 10:21:36;;;;;;;0.93;0.50;;;;;;;;;;4963483;28;20054;-68
2023/10/28 10:24:04;;;;;;;0.75;0.40;;;;;;;;;;4962083;28;20038;-67
2023/10/28 10:26:34;;;;;;;1.80;0.40;;;;;;;;;;4962406;28;20042;-68
2023/10/28 10:29:03;;;;;;;0.82;0.43;;;;;;;;;;4961847;28;20512;-67
2023/10/28 10:31:36;;;;;;;0.55;0.30;;;;;;;;;;4962549;28;20051;-67
2023/10/28 10:34:09;;;;;;;3.28;0.45;;;;;;;;;;4962347;28;20214;-67
2023/10/28 10:36:40;;;;;;;0.47;0.30;;;;;;;;;;4961755;28;20050;-68
2023/10/28 10:39:11;;;;;;;0.43;0.43;;;;;;;;;;4960146;28;20043;-67
2023/10/28 10:41:38;;;;;;;1.08;0.30;;;;;;;;;;4961464;28;20050;-67
2023/10/28 10:44:32;;;;;;;0.52;0.52;;;;;;;;;;4962212;28;20101;-67
2023/10/28 10:46:58;;;;;;;1.60;0.50;;;;;;;;;;4973191;28;20074;-67
2023/10/28 10:49:24;;;;;;;2.47;0.45;;;;;;;;;;4961213;28;20496;-68
2023/10/28 10:51:50;;;;;;;0.85;0.50;;;;;;;;;;4961714;28;20078;-68
2023/10/28 10:54:19;;;;;;;0.50;0.50;;;;;;;;;;4978174;28;20081;-68
2023/10/28 10:56:48;;;;;;;1.35;0.50;;;;;;;;;;4977020;28;20062;-67
2023/10/28 10:59:14;;;;;;;0.60;0.50;;;;;;;;;;4960837;28;20094;-68
2023/10/28 11:01:40;;;;;;;2.83;0.60;;;;;;;;;;4961793;28;20313;-68
2023/10/28 11:04:06;;;;;;;0.60;0.60;;;;;;;;;;4962091;28;20807;-68
2023/10/28 11:06:33;;;;;;;1.00;0.40;;;;;;;;;;4959570;28;20117;-68
2023/10/28 11:09:03;;;;;;;3.03;0.63;;;;;;;;;;4961647;28;20054;-68
2023/10/28 11:11:29;;;;;;;1.45;0.57;;;;;;;;;;4962002;28;20074;-68
2023/10/28 11:13:55;;;;;;;0.85;0.40;;;;;;;;;;4959559;28;20519;-68
2023/10/28 11:16:27;;;;;;;1.55;0.40;;;;;;;;;;4961486;28;20126;-68
2023/10/28 11:18:53;;;;;;;1.15;0.40;;;;;;;;;;4962655;28;20183;-68
2023/10/28 11:21:23;;;;;;;1.02;0.82;;;;;;;;;;4961671;28;20463;-68
2023/10/28 11:23:49;;;;;;;0.93;0.82;;;;;;;;;;4960078;28;20047;-69
2023/10/28 11:26:20;;;;;;;1.10;0.43;;;;;;;;;;4959512;28;20050;-68
2023/10/28 11:28:46;;;;;;;0.82;0.70;;;;;;;;;;4960757;28;20051;-68
2023/10/28 11:31:12;;;;;;;0.40;0.20;;;;;;;;;;4960888;28;20076;-68
2023/10/28 11:33:38;;;;;;;1.08;0.65;;;;;;;;;;4961531;28;20058;-68
2023/10/28 11:36:04;;;;;;;0.82;0.40;;;;;;;;;;4958190;28;20074;-68
2023/10/28 11:38:33;;;;;;;1.95;0.50;;;;;;;;;;4958550;28;20042;-67
2023/10/28 11:41:06;;;;;;;1.08;0.40;;;;;;;;;;4960794;28;20689;-69
2023/10/28 11:43:33;;;;;;;0.55;0.38;;;;;;;;;;4959453;28;20094;-68
2023/10/28 11:45:59;;;;;;;0.95;0.32;;;;;;;;;;4960460;28;20046;-68
2023/10/28 11:48:25;;;;;;;1.40;0.60;;;;;;;;;;4960493;28;20046;-69
2023/10/28 11:50:51;;;;;;;1.23;0.55;;;;;;;;;;4960041;28;20408;-69
2023/10/28 11:53:27;;;;;;;0.82;0.40;;;;;;;;;;4960716;28;20523;-68
2023/10/28 11:55:54;;;;;;;1.02;0.30;;;;;;;;;;4960120;28;20067;-68
2023/10/28 11:58:22;;;;;;;0.30;0.20;;;;;;;;;;4959317;28;20174;-69
2023/10/28 12:00:52;;;;;;;1.15;0.40;;;;;;;;;;4960293;28;20801;-68
2023/10/28 12:03:19;;;;;;;0.47;0.30;;;;;;;;;;4960057;28;20070;-69
2023/10/28 12:05:44;;;;;;;1.67;0.30;;;;;;;;;;4958570;28;20046;-68
2023/10/28 12:08:12;;;;;;;4.63;0.77;;;;;;;;;;4959292;28;20053;-68
2023/10/28 12:10:43;;;;;;;2.15;0.30;;;;;;;;;;4972653;28;20138;-68
2023/10/28 12:13:13;;;;;;;0.40;0.38;;;;;;;;;;4959754;28;20134;-68
2023/10/28 12:15:39;;;;;;;2.97;0.50;;;;;;;;;;4957936;28;20161;-68
2023/10/28 12:18:06;;;;;;;0.30;0.30;;;;;;;;;;4959662;28;20409;-68
2023/10/28 12:20:32;;;;;;;0.40;0.30;;;;;;;;;;4957769;28;20050;-68
2023/10/28 12:22:57;;;;;;;0.50;0.40;;;;;;;;;;4959780;28;20451;-68
2023/10/28 12:25:24;;;;;;;3.35;0.60;;;;;;;;;;4960136;28;20069;-68
2023/10/28 12:27:50;;;;;;;1.52;0.35;;;;;;;;;;4943508;28;20054;-68
2023/10/28 12:30:16;;;;;;;3.42;0.60;;;;;;;;;;4957586;28;20054;-67
2023/10/28 12:32:41;;;;;;;0.90;0.30;;;;;;;;;;4960321;28;20101;-67
2023/10/28 12:35:07;;;;;;;1.27;0.60;;;;;;;;;;4959535;28;20500;-67
2023/10/28 12:37:32;;;;;;;0.32;0.30;;;;;;;;;;4958778;28;20117;-67
2023/10/28 12:39:58;;;;;;;0.43;0.35;;;;;;;;;;4957422;28;20053;-68
2023/10/28 12:42:24;;;;;;;1.63;0.45;;;;;;;;;;4957478;28;20169;-67
2023/10/28 12:44:50;;;;;;;1.80;0.60;;;;;;;;;;4958259;28;20135;-67
2023/10/28 12:47:15;;;;;;;2.00;0.40;;;;;;;;;;4958835;28;20087;-67
2023/10/28 12:49:41;;;;;;;0.70;0.30;;;;;;;;;;4957387;28;20407;-67
2023/10/28 12:52:06;;;;;;;3.60;0.40;;;;;;;;;;4957503;28;20058;-67
2023/10/28 12:54:34;;;;;;;1.42;0.40;;;;;;;;;;4958367;28;20856;-67
2023/10/28 12:57:01;;;;;;;17.13;4.50;;;;;;;;;;4957081;28;20126;-67
2023/10/28 12:59:29;;;;;;;4.10;0.68;;;;;;;;;;4958306;28;20142;-67
2023/10/28 13:01:54;;;;;;;2.67;0.60;;;;;;;;;;4958992;28;20809;-68
2023/10/28 13:04:22;;;;;;;0.20;0.20;;;;;;;;;;4956904;28;20046;-67
2023/10/28 13:06:48;;;;;;;0.77;0.60;;;;;;;;;;4957600;28;20050;-68
2023/10/28 13:09:14;;;;;;;1.08;0.45;;;;;;;;;;4959085;28;20093;-68
2023/10/28 13:11:39;;;;;;;0.60;0.45;;;;;;;;;;4959902;28;20059;-68
2023/10/28 13:14:06;;;;;;;1.80;0.50;;;;;;;;;;4958852;28;20466;-68
2023/10/28 13:16:34;;;;;;;4.40;0.55;;;;;;;;;;4958685;28;20131;-68
2023/10/28 13:19:00;;;;;;;4.93;0.47;;;;;;;;;;4959318;28;20034;-68
2023/10/28 13:21:26;;;;;;;1.45;0.47;;;;;;;;;;4957932;28;20047;-67
2023/10/28 13:23:52;;;;;;;1.65;0.45;;;;;;;;;;4958194;28;20047;-67
2023/10/28 13:26:17;;;;;;;1.83;0.32;;;;;;;;;;4958370;28;20686;-66
2023/10/28 13:28:44;;;;;;;1.55;0.40;;;;;;;;;;4959242;28;20050;-68
2023/10/28 13:31:09;;;;;;;1.58;0.55;;;;;;;;;;4956665;28;20074;-67
2023/10/28 13:33:35;;;;;;;0.55;0.35;;;;;;;;;;4955226;28;20047;-67
2023/10/28 13:36:03;;;;;;;3.40;0.63;;;;;;;;;;4958182;28;20043;-67
2023/10/28 13:38:29;;;;;;;2.67;0.70;;;;;;;;;;4989416;28;20077;-67
2023/10/28 13:40:54;;;;;;;2.72;0.60;;;;;;;;;;4959350;28;20138;-68
2023/10/28 13:43:19;;;;;;;1.83;0.77;;;;;;;;;;4958773;28;20188;-68
2023/10/28 13:45:45;;;;;;;1.70;0.50;;;;;;;;;;4959718;28;20116;-67
2023/10/28 13:48:12;;;;;;;1.52;0.60;;;;;;;;;;4958319;28;20058;-68
2023/10/28 13:50:37;;;;;;;1.98;0.73;;;;;;;;;;4961423;28;20499;-68
2023/10/28 13:53:04;;;;;;;1.67;0.63;;;;;;;;;;4971142;28;20051;-67
2023/10/28 13:55:29;;;;;;;1.00;0.45;;;;;;;;;;4959903;28;20108;-70
2023/10/28 13:57:55;;;;;;;1.42;0.50;;;;;;;;;;4958978;28;20871;-67
2023/10/28 14:00:22;;;;;;;1.75;0.70;;;;;;;;;;4957663;28;20047;-68
2023/10/28 14:02:48;;;;;;;1.10;0.70;;;;;;;;;;4958330;28;20049;-67
2023/10/28 14:05:14;;;;;;;4.35;0.80;;;;;;;;;;4958059;28;20054;-67
2023/10/28 14:07:39;;;;;;;2.53;0.70;;;;;;;;;;4959823;28;20135;-68
2023/10/28 14:10:06;;;;;;;3.05;0.75;;;;;;;;;;4957424;28;20054;-67
2023/10/28 14:12:33;;;;;;;0.70;0.60;;;;;;;;;;4958638;28;20579;-66
2023/10/28 14:14:58;;;;;;;0.70;0.40;;;;;;;;;;4958206;28;20560;-68
2023/10/28 14:17:24;;;;;;;3.85;2.17;;;;;;;;;;4959204;28;19933;-66
2023/10/28 14:19:50;;;;;;;2.08;1.75;;;;;;;;;;4959131;28;20043;-68
2023/10/28 14:22:20;;;;;;;11.45;8.68;;;;;;;;;;4958632;28;20106;-68
2023/10/28 14:24:45;;;;;;;2.75;1.67;;;;;;;;;;4959488;28;20054;-68
2023/10/28 14:27:11;;;;;;;1.20;0.50;;;;;;;;;;4958862;28;20043;-67
2023/10/28 14:29:36;;;;;;;3.25;0.68;;;;;;;;;;4959102;28;20039;-67
2023/10/28 14:32:02;;;;;;;2.45;1.30;;;;;;;;;;4958659;28;20047;-68
2023/10/28 14:34:27;;;;;;;1.75;0.50;;;;;;;;;;4948653;28;20707;-67
2023/10/28 14:36:53;;;;;;;3.08;0.65;;;;;;;;;;4959344;28;20062;-67
2023/10/28 14:39:18;;;;;;;0.95;0.55;;;;;;;;;;4957827;28;20043;-68